Main page
METAR-TAF:

METAR-TAF

Airports :

Treviso, Italy

Istrana Air Base

latitude: 45-41N, longitude: 012-06E, elevation: 45 m

Current weather observation

The report was made 34 minutes ago, at 18:55 UTC
Calm wind
Temperature 14°C
Humidity 88%
Pressure 1019 hPa
Visibility: 2500 m
Broken clouds at a height of 3000 ft
mist

METAR: LIPS 211855Z 00000KT 2500 BR BKN030 14/12 Q1019 RMK BKN VIS MIN 2500 WIND THR26 00000KT WIND THR08 00000KT YLO

Time: 21:29 (19:29 UTC)

Forecast

The report was made 2 hours and 29 minutes ago, at 17:00 UTC
Forecast valid from 21 at 18 UTC to 22 at 03 UTC
Wind 3 kt from the North/Northeast
Visibility: 2000 m
Broken clouds at a height of 2000 ft
mist
Temporary
from 21 at 21 UTC to 22 at 03 UTC
Visibility: 1200 m
mist

TAF: LIPS 211700Z 2118/2203 02003KT 2000 BR BKN020 TEMPO 2121/2203 1200 BR

Weather observations and forecasts of more than 4000 airports (METAR and TAF reports).

The available stations are represented by yellow and red dots on the map.

Hover mouse over dot to see the name of the station.

Then click to see weather observations and forecasts.

To change the map : click on the green buttons with a black cross to zoom in, on the green button with a dash to zoom out, or on the green arrows for adjacent maps.


METAR-TAF: